Home > Products > Valid Products > TAF

000
FTUS41 KBTV 020539 CCA
TAFMPV
TAF COR
KMPV 020539Z 0206/0306 VRB03KT P6SM SCT015 OVC020
      TEMPO 0206/0210 SCT008 OVC015
     FM021400 00000KT 3SM -SHRA BR SCT008 OVC015
     FM022300 00000KT P6SM VCSH SCT008 OVC015=



000
FTUS41 KBTV 020538
TAFMSS
TAF
KMSS 020538Z 0206/0306 VRB03KT P6SM SCT008 OVC025
     FM021100 VRB03KT P6SM SCT008 OVC015
     FM021700 03006KT 3SM -SHRA BR SCT008 OVC015
     FM022100 03007KT P6SM VCSH SCT008 OVC025
     FM030000 VRB03KT P6SM BKN025
     FM030200 00000KT P6SM BKN035=



000
FTUS41 KBTV 020538
TAFBTV
TAF
KBTV 020538Z 0206/0306 VRB03KT P6SM SCT008 OVC020
      TEMPO 0206/0208 -SHRADZ
     FM021100 15005KT 5SM BR BKN020 OVC025
     FM021500 07005KT 3SM -SHRA BR SCT008 OVC015
     FM021900 36005KT 3SM -SHRA BR SCT008 OVC015
     FM022300 32004KT P6SM VCSH SCT008 OVC015
     FM030300 VRB03KT P6SM OVC015=



000
FTUS41 KBTV 020538
TAFMPV
TAF
KMPV 020538Z 0206/0306 VRB03KT P6SM SCT015 OVC020
     FM021400 00000KT 3SM -SHRA BR SCT008 OVC015
     FM022300 00000KT P6SM VCSH SCT008 OVC015=



000
FTUS41 KBTV 020538
TAFSLK
TAF
KSLK 020538Z 0206/0306 00000KT P6SM SCT008 OVC020
      TEMPO 0206/0210 5SM BR SCT007 OVC015
     FM021100 00000KT 3SM -SHRA BR OVC015
     FM021700 00000KT 3SM -SHRA BR OVC010
     FM022200 00000KT P6SM VCSH SCT008 OVC010=



000
FTUS41 KBTV 012320
TAFMPV
TAF
KMPV 012320Z 0200/0224 16007KT 3SM -SHRA BR OVC025
     FM020500 15004KT 3SM -DZ BR SCT006 OVC015
     FM021500 16004KT 3SM -SHRA BR BKN015 OVC030=



000
FTUS41 KBTV 012320
TAFBTV
TAF
KBTV 012320Z 0200/0224 14008KT 3SM -SHRA BR BKN020 OVC030
     FM020200 16004KT 3SM -SHRA BR BKN015 OVC025
     FM020400 VRB03KT 3SM -DZ BR SCT008 OVC015
     FM021500 14004KT 3SM -SHRA BR BKN015 OVC025=



000
FTUS41 KBTV 012320
TAFSLK
TAF
KSLK 012320Z 0200/0224 10006KT 3SM -SHRA BR BKN020 OVC030
     FM020300 00000KT 3SM -DZ BR BKN008 OVC015
     FM021400 VRB03KT 3SM -SHRA BR OVC015=



000
FTUS41 KBTV 012320
TAFMSS
TAF
KMSS 012320Z 0200/0224 06007KT 3SM -SHRA BR BKN015 OVC030
      TEMPO 0200/0204 BKN006
     FM020400 VRB02KT 3SM -DZ BR SCT008 OVC015
     FM021400 05006KT 4SM -RA BR SCT008 OVC010=



000
FTUS41 KBTV 012032 AAA
TAFMSS
TAF AMD
KMSS 012032Z 0121/0218 07009KT 4SM -RA BR BKN025 BKN040
     FM012200 06009KT 3SM -SHRA BR BKN020 OVC025
     FM020400 00000KT P6SM VCSH BKN015 OVC025
     FM020800 00000KT P6SM VCSH BKN010 OVC025
     FM021400 05006KT P6SM VCSH OVC010=



000
FTUS41 KBTV 012032 AAB
TAFBTV
TAF AMD
KBTV 012032Z 0121/0218 17006KT 6SM -RA BR BKN015 OVC045
     FM012200 15007KT 3SM -SHRA BR SCT020 OVC030
     FM020600 VRB03KT P6SM VCSH SCT020 OVC025
     FM021000 14004KT 3SM -SHRA BR SCT015 OVC025=



000
FTUS41 KBTV 012032 AAA
TAFSLK
TAF AMD
KSLK 012032Z 0121/0218 15007KT 6SM -RA BR BKN030 OVC045
     FM020300 VRB03KT 3SM -SHRA BR BKN020 OVC025
     FM020900 00000KT P6SM VCSH BKN015 OVC020
     FM021000 00000KT 3SM -SHRA BR OVC015=



000
FTUS41 KBTV 012031 AAA
TAFMPV
TAF AMD
KMPV 012031Z 0121/0218 19006KT 6SM -RA BR BKN025 OVC045
     FM012200 16006KT 3SM -SHRA BR OVC025
     FM020700 15004KT P6SM VCSH SCT020 OVC035
     FM021000 16004KT 3SM -SHRA BR SCT015 OVC030=



000
FTUS41 KBTV 012030 AAA
TAFBTV
TAF AMD
KBTV 012030Z 0121/0218 17006KT 5SM -RA BR BKN015 OVC045
     FM012200 15007KT 3SM -SHRA BR SCT020 OVC030
     FM020600 VRB03KT P6SM VCSH SCT020 OVC025
     FM021000 14004KT 3SM -SHRA BR SCT015 OVC025=



000
FTUS41 KBTV 011749 CCA
TAFMPV
TAF COR
KMPV 011749Z 0118/0218 19006KT 4SM -RA BR SCT025 OVC030
     FM012200 16006KT 3SM -SHRA BR OVC025
     FM020700 15004KT P6SM VCSH SCT020 OVC035
     FM021000 16004KT 3SM -SHRA BR SCT015 OVC030=



000
FTUS41 KBTV 011732
TAFBTV
TAF
KBTV 011732Z 0118/0218 17006KT 5SM -RA BR SCT025 OVC045
     FM012200 15007KT 3SM -SHRA BR SCT020 OVC030
     FM020600 VRB03KT P6SM VCSH SCT020 OVC025
     FM021000 14004KT 3SM -SHRA BR SCT015 OVC025=



000
FTUS41 KBTV 011732
TAFMPV
TAF
KMPV 011732Z 0118/0218 19006KT 4SM -RA BR BKN025 OVC030
     FM012200 16006KT 3SM -SHRA BR OVC025
     FM020700 15004KT P6SM VCSH SCT020 OVC035
     FM021000 16004KT 3SM -SHRA BR SCT015 OVC030=



000
FTUS41 KBTV 011732
TAFSLK
TAF
KSLK 011732Z 0118/0218 15007KT 6SM -RA BR BKN035 OVC045
     FM020300 VRB03KT 3SM -SHRA BR BKN020 OVC025
     FM020900 00000KT P6SM VCSH BKN015 OVC020
     FM021000 00000KT 3SM -SHRA BR OVC015=



000
FTUS41 KBTV 011732
TAFMSS
TAF
KMSS 011732Z 0118/0218 07009KT 6SM -RA BR SCT025 BKN040
     FM012200 06009KT 3SM -SHRA BR BKN020 OVC025
     FM020400 00000KT P6SM VCSH BKN015 OVC025
     FM020800 00000KT P6SM VCSH BKN010 OVC025
     FM021400 05006KT P6SM VCSH OVC010=



000
FTUS41 KBTV 011120
TAFMPV
TAF
KMPV 011120Z 0112/0212 00000KT P6SM VCSH FEW070 OVC090
     FM011400 VRB03KT P6SM -RA OVC050
     FM011800 14005KT 3SM -RA BR BKN025 OVC050
     FM012200 16008KT P6SM -SHRA BKN025 OVC050=



000
FTUS41 KBTV 011120
TAFSLK
TAF
KSLK 011120Z 0112/0212 00000KT P6SM VCSH SCT045 BKN050 OVC090
     FM011300 11004KT 6SM -RA BR OVC050
     FM011600 11006KT 3SM -RA BR BKN030 OVC050
     FM011700 12007KT 5SM -RA BR BKN030 OVC050
     FM020200 20007KT 3SM -SHRA BR BKN025 OVC045
     FM020800 23005KT P6SM -SHRA BKN020 OVC040=



000
FTUS41 KBTV 011120
TAFBTV
TAF
KBTV 011120Z 0112/0212 10003KT P6SM VCSH BKN060 OVC120
     FM011400 13005KT P6SM -RA BKN035 OVC050
     FM011700 15007KT 3SM -RA BR BKN025 OVC045
     FM012000 16011KT 6SM -SHRA BKN025 OVC045
     FM020200 16007KT P6SM -SHRA BKN025 OVC045=



000
FTUS41 KBTV 011120
TAFMSS
TAF
KMSS 011120Z 0112/0212 06009KT P6SM VCSH BKN070 OVC090
     FM011300 07011KT 6SM -RA BR OVC050
     FM011500 06009KT 6SM -RA BR BKN020 OVC050
     FM011700 06011KT 3SM -RA BR BKN025 OVC050
     FM020000 05008KT 2SM -SHRA BR BKN030 OVC050
     FM020900 02004KT 5SM -SHRA BR BKN025 OVC040=



000
FTUS41 KBTV 011120
TAFSLK
TAF
KSLK 011120Z 0112/0212 00000KT P6SM VCSH SCT045 BKN050 OVC090
     FM011300 11004KT 6SM -RA BR OVC050
     FM011600 11006KT 3SM -RA BR BKN030 OVC050
     FM011700 12007KT 5SM -RA BR BKN030 OVC050
     FM020200 20007KT 3SM -SHRA BR BKN025 OVC045
     FM020800 23005KT P6SM -SHRA BKN020 OVC040=



000
FTUS41 KBTV 011120
TAFMPV
TAF
KMPV 011120Z 0112/0212 00000KT P6SM VCSH FEW070 OVC090
     FM011400 VRB03KT P6SM -RA OVC050
     FM011800 14005KT 3SM -RA BR BKN025 OVC050
     FM012200 16008KT P6SM -SHRA BKN025 OVC050=



000
FTUS41 KBTV 011120
TAFMSS
TAF
KMSS 011120Z 0112/0212 06009KT P6SM VCSH BKN070 OVC090
     FM011300 07011KT 6SM -RA BR OVC050
     FM011500 06009KT 6SM -RA BR BKN020 OVC050
     FM011700 06011KT 3SM -RA BR BKN025 OVC050
     FM020000 05008KT 2SM -SHRA BR BKN030 OVC050
     FM020900 02004KT 5SM -SHRA BR BKN025 OVC040=



000
FTUS41 KBTV 011120
TAFBTV
TAF
KBTV 011120Z 0112/0212 10003KT P6SM VCSH BKN060 OVC120
     FM011400 13005KT P6SM -RA BKN035 OVC050
     FM011700 15007KT 3SM -RA BR BKN025 OVC045
     FM012000 16011KT 6SM -SHRA BKN025 OVC045
     FM020200 16007KT P6SM -SHRA BKN025 OVC045=



000
FTUS41 KBTV 010531
TAFBTV
TAF
KBTV 010531Z 0106/0206 00000KT P6SM BKN070 OVC200
     FM010900 00000KT P6SM OVC060
     FM011200 00000KT P6SM VCSH OVC050
     FM011500 12005KT 4SM -RA BR OVC030
     FM012100 14009KT 3SM -RA BR SCT008 OVC020
     FM020100 16010KT 2SM -RA BR OVC008=



000
FTUS41 KBTV 010531
TAFMPV
TAF
KMPV 010531Z 0106/0206 00000KT P6SM BKN250
     FM010800 00000KT P6SM OVC070
     FM011300 VRB03KT P6SM VCSH OVC045
     FM011500 15005KT 4SM -RA BR BKN015 OVC035
     FM012000 16009KT 3SM -RA BR OVC015
     FM020000 17010KT 4SM -RA BR SCT006 OVC015=



000
FTUS41 KBTV 010531
TAFMSS
TAF
KMSS 010531Z 0106/0206 05005KT P6SM OVC200
     FM010800 06006KT P6SM OVC070
     FM011200 07007KT P6SM VCSH OVC040
     FM011400 08008KT 5SM -RA BR SCT015 OVC030
     FM011800 07010KT 3SM -RA BR SCT008 OVC015
     FM012100 05011KT 2SM -RA BR SCT003 OVC008=



000
FTUS41 KBTV 010531
TAFSLK
TAF
KSLK 010531Z 0106/0206 VRB03KT P6SM SCT050 OVC150
     FM010900 VRB03KT P6SM VCSH OVC050
     FM011200 11004KT 5SM -RA BR SCT020 OVC040
     FM011500 13006KT 3SM -RA BR SCT010 OVC020
     FM011800 14008KT 2SM -RA SCT006 OVC012
     FM012100 15007KT 2SM -RA BR SCT004 OVC008=



000
FTUS41 KBTV 302320
TAFSLK
TAF
KSLK 302320Z 0100/0124 VRB03KT P6SM SCT250
     FM010500 VRB03KT P6SM BKN100
     FM011000 VRB03KT P6SM VCSH OVC050
     FM011200 12004KT 5SM -RA BR OVC040
     FM011500 12005KT 3SM -RA BR OVC020=



000
FTUS41 KBTV 302320
TAFBTV
TAF
KBTV 302320Z 0100/0124 36006KT P6SM FEW250
     FM010200 00000KT P6SM SCT250
     FM010800 00000KT P6SM OVC060
     FM011200 00000KT 5SM -RA BR OVC050
     FM011500 VRB03KT 3SM -RA BR OVC030
     FM012200 13007KT 3SM -RA BR OVC020=



000
FTUS41 KBTV 302320
TAFMPV
TAF
KMPV 302320Z 0100/0124 00000KT P6SM SKC
     FM010800 00000KT P6SM OVC060
     FM011300 VRB03KT 5SM -RA BR OVC035
     FM011500 VRB03KT 3SM -RA BR OVC020
     FM012200 17007KT 3SM -RA BR OVC030=



000
FTUS41 KBTV 302320
TAFMSS
TAF
KMSS 302320Z 0100/0124 05005KT P6SM FEW250
     FM010800 07007KT P6SM OVC060
     FM011200 07007KT 5SM -RA BR OVC045
     FM011500 07007KT 3SM -RA BR OVC020=



000
FTUS41 KBTV 301740
TAFBTV
TAF
KBTV 301740Z 3018/0118 33011KT P6SM SKC
     FM302200 36006KT P6SM SKC
     FM010200 VRB03KT P6SM FEW250
     FM010600 00000KT P6SM OVC100
     FM011200 00000KT 3SM -RA BR OVC060=



000
FTUS41 KBTV 301740
TAFMPV
TAF
KMPV 301740Z 3018/0118 33007KT P6SM SKC
     FM302300 VRB03KT P6SM SKC
     FM010700 00000KT P6SM BKN110
     FM011300 VRB03KT 3SM -RA BR OVC060=



000
FTUS41 KBTV 301740
TAFMSS
TAF
KMSS 301740Z 3018/0118 04008KT P6SM SKC
     FM010100 05004KT P6SM SCT250
     FM010600 06007KT P6SM OVC090
     FM011200 07007KT 3SM -RA BR OVC045=



000
FTUS41 KBTV 301740
TAFSLK
TAF
KSLK 301740Z 3018/0118 03007KT P6SM SKC
     FM010100 10004KT P6SM BKN200
     FM011100 12004KT 3SM -RA BR OVC045=



000
FTUS41 KBTV 301126
TAFMPV
TAF
KMPV 301126Z 3012/0112 00000KT P6SM SKC
     FM301500 33005KT P6SM SKC
     FM010600 00000KT P6SM BKN100=



000
FTUS41 KBTV 301126
TAFSLK
TAF
KSLK 301126Z 3012/0112 00000KT P6SM SKC
     FM301800 03006KT P6SM SKC
     FM010400 08005KT P6SM BKN070
     FM010800 00000KT P6SM OVC050=



000
FTUS41 KBTV 301126
TAFBTV
TAF
KBTV 301126Z 3012/0112 00000KT P6SM SKC
     FM301300 34006KT P6SM SKC
     FM010600 VRB03KT P6SM BKN070=



000
FTUS41 KBTV 301126
TAFMSS
TAF
KMSS 301126Z 3012/0112 04004KT P6SM SKC
     FM301600 03007KT P6SM SKC
     FM010200 07006KT P6SM SCT200
     FM010800 06006KT P6SM OVC080=



000
FTUS41 KBTV 301126
TAFMPV
TAF
KMPV 301126Z 3012/0112 00000KT P6SM SKC
     FM301500 33005KT P6SM SKC
     FM010600 00000KT P6SM BKN100=



000
FTUS41 KBTV 301126
TAFSLK
TAF
KSLK 301126Z 3012/0112 00000KT P6SM SKC
     FM301800 03006KT P6SM SKC
     FM010400 08005KT P6SM BKN070
     FM010800 00000KT P6SM OVC050=



000
FTUS41 KBTV 301126
TAFBTV
TAF
KBTV 301126Z 3012/0112 00000KT P6SM SKC
     FM301300 34006KT P6SM SKC
     FM010600 VRB03KT P6SM BKN070=



000
FTUS41 KBTV 301126
TAFMSS
TAF
KMSS 301126Z 3012/0112 04004KT P6SM SKC
     FM301600 03007KT P6SM SKC
     FM010200 07006KT P6SM SCT200
     FM010800 06006KT P6SM OVC080=



000
FTUS41 KBTV 300536
TAFMSS
TAF
KMSS 300536Z 3006/0106 00000KT P6SM SKC
     FM301400 04007KT P6SM SKC
     FM010500 08006KT P6SM BKN090=



000
FTUS41 KBTV 300536
TAFSLK
TAF
KSLK 300536Z 3006/0106 00000KT P6SM SKC
     FM301600 03006KT P6SM SKC
     FM010400 08004KT P6SM BKN090=



000
FTUS41 KBTV 300536
TAFMPV
TAF
KMPV 300536Z 3006/0106 31003KT P6SM SCT070
     FM301800 34006KT P6SM SKC
     FM010100 00000KT P6SM FEW250
     FM010500 00000KT P6SM BKN090=



000
FTUS41 KBTV 300536
TAFBTV
TAF
KBTV 300536Z 3006/0106 33005KT P6SM SCT080
     FM301900 35008KT P6SM SKC
     FM010500 00000KT P6SM BKN090=



000
FTUS41 KBTV 292320
TAFSLK
TAF
KSLK 292320Z 3000/3024 06005KT P6SM SCT060
     FM300300 00000KT P6SM SCT150
     FM301900 04006KT P6SM SKC=



000
FTUS41 KBTV 292320
TAFMSS
TAF
KMSS 292320Z 3000/3024 06004KT P6SM FEW200
     FM301900 03008KT P6SM FEW250=



000
FTUS41 KBTV 292320
TAFBTV
TAF
KBTV 292320Z 3000/3024 32010KT P6SM FEW110 BKN250
     FM300400 35005KT P6SM SKC=



000
FTUS41 KBTV 292320
TAFMPV
TAF
KMPV 292320Z 3000/3024 VRB03KT P6SM SCT140
     FM301800 34007KT P6SM SKC
     FM302300 VRB03KT P6SM FEW250=



000
FTUS41 KBTV 291728
TAFMPV
TAF
KMPV 291728Z 2918/3018 VRB04KT P6SM SCT200
     FM300600 32005KT P6SM FEW250=



000
FTUS41 KBTV 291728
TAFBTV
TAF
KBTV 291728Z 2918/3018 VRB06KT P6SM SCT200
     FM301100 00000KT P6SM FEW250
     FM301700 35006KT P6SM SKC=



000
FTUS41 KBTV 291728
TAFSLK
TAF
KSLK 291728Z 2918/3018 VRB05KT P6SM SCT200
     FM300200 VRB03KT P6SM SCT200=



000
FTUS41 KBTV 291728
TAFMSS
TAF
KMSS 291728Z 2918/3018 04012KT P6SM SCT250
     FM292300 06006KT P6SM FEW250=



000
FTUS41 KBTV 291140
TAFBTV
TAF
KBTV 291140Z 2912/3012 31006KT P6SM SKC
     FM292200 35006KT P6SM BKN200
     FM300800 00000KT P6SM SCT200=



000
FTUS41 KBTV 291140
TAFMPV
TAF
KMPV 291140Z 2912/3012 00000KT P6SM FEW250
     FM292000 32005KT P6SM BKN200=



000
FTUS41 KBTV 291140
TAFSLK
TAF
KSLK 291140Z 2912/3012 00000KT P6SM FEW250
     FM300000 05003KT P6SM BKN250=



000
FTUS41 KBTV 291140
TAFMSS
TAF
KMSS 291140Z 2912/3012 05008KT P6SM SKC
     FM300500 VRB03KT P6SM SCT200=



000
FTUS41 KBTV 291140
TAFMPV
TAF
KMPV 291140Z 2912/3012 00000KT P6SM FEW250
     FM292000 32005KT P6SM BKN200=



000
FTUS41 KBTV 291140
TAFSLK
TAF
KSLK 291140Z 2912/3012 00000KT P6SM FEW250
     FM300000 05003KT P6SM BKN250=



000
FTUS41 KBTV 291140
TAFBTV
TAF
KBTV 291140Z 2912/3012 31006KT P6SM SKC
     FM292200 35006KT P6SM BKN200
     FM300800 00000KT P6SM SCT200=



000
FTUS41 KBTV 291140
TAFMSS
TAF
KMSS 291140Z 2912/3012 05008KT P6SM SKC
     FM300500 VRB03KT P6SM SCT200=



    US Dept of Commerce
    National Oceanic and Atmospheric Administration
    National Weather Service
    1325 East West Highway
    Silver Spring, MD 20910
    Page Author: NWS Internet Services Team
Disclaimer
Information Quality
Credits
Glossary
Privacy Policy
Freedom of Information Act (FOIA)
About Us
Career Opportunities